Hall, New York
Current Conditions -  °F | °C
As of 12:53 PM on Sunday 21 Dec 2014 (Local Time) from KPEO Reporting Station
Overcast Overcast  
Wind Chill: 27°   Ceiling: 2700
Heat Index: 33°   Visibility: 10mi
Dew Point: 21°   Wind: 7mph
Humidity: 61%   Direction: 320°NW
Pressure: 30.28"   Gusts: NA
Location:  42.79°N, 77.07°W
Report Text: KPEO 211753Z AUTO 32006KT 10SM OVC027 01/M06 A3028 RMK AO2 SLP264 T00061061 10011 21028 58011
Loading
Personal Weather Stations






























Interactive Weather Map New forecast layout! Learn more

10-Day Weather Forecast

Advertisements
Track Severe Weather on mobile